Brynmawr, United Kingdom
Current Conditions -  °F | °C
As of 10:20 PM on Sunday 23 Nov 2014 (Local Time) from EGFF Reporting Station
Clear Clear  
Wind Chill: 34°   Ceiling: Unl
Heat Index: 39°   Visibility: 6mi
Dew Point: 36°   Wind: 8mph
Humidity: 87%   Direction: 340°NNW
Pressure: 30.21"   Gusts: NA
Location:  51.8°N, 3.18°W
Report Text: EGFF 232220Z 34007KT CAVOK 04/02 Q1023
Loading
Personal Weather Stations






























Interactive Weather Map New forecast layout! Learn more

10-Day Weather Forecast

Advertisements
Track Severe Weather on mobile